sensor_id;sensor_type;location;lat;lon;timestamp;pressure;altitude;pressure_sealevel;temperature;humidity
66176;BME280;52977;44.816;20.538;2023-07-13T00:01:51;99495.97;;;29.81;58.65
66176;BME280;52977;44.816;20.538;2023-07-13T00:04:20;99491.28;;;29.78;58.43
66176;BME280;52977;44.816;20.538;2023-07-13T00:06:46;99511.50;;;29.86;58.50
66176;BME280;52977;44.816;20.538;2023-07-13T00:09:14;99499.25;;;29.79;58.86
66176;BME280;52977;44.816;20.538;2023-07-13T00:11:41;99518.38;;;29.85;58.80
66176;BME280;52977;44.816;20.538;2023-07-13T00:14:07;99513.16;;;29.83;59.13
66176;BME280;52977;44.816;20.538;2023-07-13T00:16:35;99510.81;;;29.81;59.10
66176;BME280;52977;44.816;20.538;2023-07-13T00:19:02;99495.25;;;29.67;58.65
66176;BME280;52977;44.816;20.538;2023-07-13T00:21:28;99457.94;;;29.45;58.52
66176;BME280;52977;44.816;20.538;2023-07-13T00:23:54;99518.59;;;29.77;58.75
66176;BME280;52977;44.816;20.538;2023-07-13T00:26:21;99493.88;;;29.72;58.95
66176;BME280;52977;44.816;20.538;2023-07-13T00:28:47;99497.03;;;29.74;59.12
66176;BME280;52977;44.816;20.538;2023-07-13T00:31:14;99496.69;;;29.72;58.81
66176;BME280;52977;44.816;20.538;2023-07-13T00:33:43;99495.16;;;29.71;58.54
66176;BME280;52977;44.816;20.538;2023-07-13T00:36:10;99467.81;;;29.49;58.85
66176;BME280;52977;44.816;20.538;2023-07-13T00:38:36;99499.78;;;29.65;59.49
66176;BME280;52977;44.816;20.538;2023-07-13T00:41:03;99482.97;;;29.52;59.55
66176;BME280;52977;44.816;20.538;2023-07-13T00:43:30;99457.41;;;29.37;59.63
66176;BME280;52977;44.816;20.538;2023-07-13T00:46:32;99483.31;;;29.54;60.04
66176;BME280;52977;44.816;20.538;2023-07-13T00:49:01;99484.22;;;29.51;60.80
66176;BME280;52977;44.816;20.538;2023-07-13T00:51:39;99490.00;;;29.47;61.48
66176;BME280;52977;44.816;20.538;2023-07-13T00:54:10;99483.25;;;29.45;61.81
66176;BME280;52977;44.816;20.538;2023-07-13T00:56:39;99487.44;;;29.40;62.54
66176;BME280;52977;44.816;20.538;2023-07-13T00:59:06;99452.88;;;29.18;62.45
66176;BME280;52977;44.816;20.538;2023-07-13T01:01:34;99486.44;;;29.34;62.85
66176;BME280;52977;44.816;20.538;2023-07-13T01:04:03;99483.78;;;29.30;62.86
66176;BME280;52977;44.816;20.538;2023-07-13T01:06:29;99488.59;;;29.30;63.21
66176;BME280;52977;44.816;20.538;2023-07-13T01:08:59;99485.78;;;29.30;63.63
66176;BME280;52977;44.816;20.538;2023-07-13T01:11:26;99463.44;;;29.13;63.67
66176;BME280;52977;44.816;20.538;2023-07-13T01:13:52;99463.25;;;29.08;64.53
66176;BME280;52977;44.816;20.538;2023-07-13T01:16:28;99461.03;;;29.03;64.65
66176;BME280;52977;44.816;20.538;2023-07-13T01:18:55;99490.88;;;29.22;64.71
66176;BME280;52977;44.816;20.538;2023-07-13T01:21:25;99493.78;;;29.19;65.13
66176;BME280;52977;44.816;20.538;2023-07-13T01:23:51;99479.78;;;29.06;65.20
66176;BME280;52977;44.816;20.538;2023-07-13T01:26:17;99469.28;;;28.97;65.54
66176;BME280;52977;44.816;20.538;2023-07-13T01:28:43;99448.84;;;28.84;65.67
66176;BME280;52977;44.816;20.538;2023-07-13T01:31:09;99477.22;;;28.98;65.94
66176;BME280;52977;44.816;20.538;2023-07-13T01:33:37;99487.41;;;29.05;66.50
66176;BME280;52977;44.816;20.538;2023-07-13T01:36:08;99480.72;;;29.03;66.88
66176;BME280;52977;44.816;20.538;2023-07-13T01:38:36;99472.06;;;28.97;66.96
66176;BME280;52977;44.816;20.538;2023-07-13T01:41:03;99460.09;;;28.84;67.25
66176;BME280;52977;44.816;20.538;2023-07-13T01:43:29;99462.53;;;28.81;67.98
66176;BME280;52977;44.816;20.538;2023-07-13T01:45:56;99468.59;;;28.93;68.31
66176;BME280;52977;44.816;20.538;2023-07-13T01:48:21;99461.47;;;28.79;68.59
66176;BME280;52977;44.816;20.538;2023-07-13T01:50:48;99474.34;;;28.89;68.67
66176;BME280;52977;44.816;20.538;2023-07-13T01:53:13;99472.56;;;28.83;68.85
66176;BME280;52977;44.816;20.538;2023-07-13T01:55:39;99476.38;;;28.89;68.83
66176;BME280;52977;44.816;20.538;2023-07-13T01:58:05;99472.44;;;28.86;68.79
66176;BME280;52977;44.816;20.538;2023-07-13T02:00:32;99468.06;;;28.85;68.98
66176;BME280;52977;44.816;20.538;2023-07-13T02:02:58;99466.47;;;28.84;69.50
66176;BME280;52977;44.816;20.538;2023-07-13T02:05:24;99469.75;;;28.83;69.47
66176;BME280;52977;44.816;20.538;2023-07-13T02:07:49;99458.09;;;28.71;69.37
66176;BME280;52977;44.816;20.538;2023-07-13T02:10:16;99459.66;;;28.72;69.41
66176;BME280;52977;44.816;20.538;2023-07-13T02:12:42;99468.09;;;28.72;69.92
66176;BME280;52977;44.816;20.538;2023-07-13T02:15:09;99454.63;;;28.67;69.99
66176;BME280;52977;44.816;20.538;2023-07-13T02:17:36;99467.28;;;28.72;70.01
66176;BME280;52977;44.816;20.538;2023-07-13T02:20:03;99458.09;;;28.71;69.99
66176;BME280;52977;44.816;20.538;2023-07-13T02:22:30;99452.81;;;28.60;70.12
66176;BME280;52977;44.816;20.538;2023-07-13T02:24:56;99439.34;;;28.55;70.26
66176;BME280;52977;44.816;20.538;2023-07-13T02:27:22;99440.44;;;28.58;70.03
66176;BME280;52977;44.816;20.538;2023-07-13T02:29:49;99447.97;;;28.61;69.92
66176;BME280;52977;44.816;20.538;2023-07-13T02:32:19;99454.75;;;28.63;70.02
66176;BME280;52977;44.816;20.538;2023-07-13T02:34:45;99461.22;;;28.60;69.86
66176;BME280;52977;44.816;20.538;2023-07-13T02:37:11;99451.25;;;28.59;70.08
66176;BME280;52977;44.816;20.538;2023-07-13T02:39:37;99400.78;;;28.21;69.93
66176;BME280;52977;44.816;20.538;2023-07-13T02:42:04;99458.88;;;28.59;69.92
66176;BME280;52977;44.816;20.538;2023-07-13T02:44:30;99470.44;;;28.61;69.56
66176;BME280;52977;44.816;20.538;2023-07-13T02:46:56;99442.81;;;28.46;69.18
66176;BME280;52977;44.816;20.538;2023-07-13T02:49:22;99455.97;;;28.62;69.32
66176;BME280;52977;44.816;20.538;2023-07-13T02:51:49;99429.38;;;28.41;69.29
66176;BME280;52977;44.816;20.538;2023-07-13T02:54:15;99459.22;;;28.61;69.50
66176;BME280;52977;44.816;20.538;2023-07-13T02:56:41;99473.25;;;28.61;69.65
66176;BME280;52977;44.816;20.538;2023-07-13T02:59:09;99453.72;;;28.57;70.06
66176;BME280;52977;44.816;20.538;2023-07-13T03:01:36;99445.84;;;28.52;69.83
66176;BME280;52977;44.816;20.538;2023-07-13T03:04:02;99412.78;;;28.34;70.06
66176;BME280;52977;44.816;20.538;2023-07-13T03:06:33;99454.75;;;28.63;70.06
66176;BME280;52977;44.816;20.538;2023-07-13T03:08:59;99397.84;;;28.24;69.73
66176;BME280;52977;44.816;20.538;2023-07-13T03:11:28;99465.97;;;28.63;69.21
66176;BME280;52977;44.816;20.538;2023-07-13T03:14:13;99452.34;;;28.62;69.78
66176;BME280;52977;44.816;20.538;2023-07-13T03:16:40;99430.81;;;28.46;70.04
66176;BME280;52977;44.816;20.538;2023-07-13T03:19:06;99462.72;;;28.65;69.95
66176;BME280;52977;44.816;20.538;2023-07-13T03:21:31;99447.31;;;28.57;70.39
66176;BME280;52977;44.816;20.538;2023-07-13T03:23:57;99443.16;;;28.61;70.24
66176;BME280;52977;44.816;20.538;2023-07-13T03:26:24;99445.88;;;28.65;70.25
66176;BME280;52977;44.816;20.538;2023-07-13T03:28:51;99458.88;;;28.72;70.54
66176;BME280;52977;44.816;20.538;2023-07-13T03:31:26;99447.09;;;28.64;70.46
66176;BME280;52977;44.816;20.538;2023-07-13T03:33:54;99462.13;;;28.70;71.11
66176;BME280;52977;44.816;20.538;2023-07-13T03:36:24;99469.22;;;28.75;70.91
66176;BME280;52977;44.816;20.538;2023-07-13T03:38:56;99462.47;;;28.72;70.84
66176;BME280;52977;44.816;20.538;2023-07-13T03:41:25;99409.75;;;28.41;70.00
66176;BME280;52977;44.816;20.538;2023-07-13T03:43:53;99454.06;;;28.72;69.52
66176;BME280;52977;44.816;20.538;2023-07-13T03:46:21;99453.25;;;28.72;69.22
66176;BME280;52977;44.816;20.538;2023-07-13T03:48:47;99449.13;;;28.63;68.97
66176;BME280;52977;44.816;20.538;2023-07-13T03:51:14;99451.81;;;28.67;69.05
66176;BME280;52977;44.816;20.538;2023-07-13T03:53:43;99458.34;;;28.64;68.87
66176;BME280;52977;44.816;20.538;2023-07-13T03:56:11;99465.97;;;28.63;68.51
66176;BME280;52977;44.816;20.538;2023-07-13T03:58:39;99473.34;;;28.57;66.95
66176;BME280;52977;44.816;20.538;2023-07-13T04:01:15;99466.31;;;28.53;66.66
66176;BME280;52977;44.816;20.538;2023-07-13T04:03:42;99459.56;;;28.50;66.73
66176;BME280;52977;44.816;20.538;2023-07-13T04:06:14;99470.44;;;28.61;66.51
66176;BME280;52977;44.816;20.538;2023-07-13T04:08:40;99465.19;;;28.50;65.87
66176;BME280;52977;44.816;20.538;2023-07-13T04:11:06;99488.06;;;28.61;65.20
66176;BME280;52977;44.816;20.538;2023-07-13T04:13:32;99481.25;;;28.62;65.12
66176;BME280;52977;44.816;20.538;2023-07-13T04:15:58;99477.59;;;28.62;64.94
66176;BME280;52977;44.816;20.538;2023-07-13T04:18:24;99469.44;;;28.55;64.34
66176;BME280;52977;44.816;20.538;2023-07-13T04:20:51;99461.25;;;28.47;64.35
66176;BME280;52977;44.816;20.538;2023-07-13T04:23:17;99470.69;;;28.54;63.66
66176;BME280;52977;44.816;20.538;2023-07-13T04:25:47;99473.34;;;28.57;63.05
66176;BME280;52977;44.816;20.538;2023-07-13T04:28:16;99492.47;;;28.62;62.36
66176;BME280;52977;44.816;20.538;2023-07-13T04:30:43;99487.41;;;28.57;62.33
66176;BME280;52977;44.816;20.538;2023-07-13T04:33:09;99498.41;;;28.64;62.19
66176;BME280;52977;44.816;20.538;2023-07-13T04:35:36;99494.91;;;28.60;61.62
66176;BME280;52977;44.816;20.538;2023-07-13T04:38:03;99486.41;;;28.64;61.75
66176;BME280;52977;44.816;20.538;2023-07-13T04:40:30;99461.59;;;28.50;62.26
66176;BME280;52977;44.816;20.538;2023-07-13T04:42:56;99486.50;;;28.60;62.43
66176;BME280;52977;44.816;20.538;2023-07-13T04:45:22;99488.75;;;28.66;62.97
66176;BME280;52977;44.816;20.538;2023-07-13T04:47:51;99485.50;;;28.67;66.87
66176;BME280;52977;44.816;20.538;2023-07-13T04:50:18;99476.94;;;28.58;69.40
66176;BME280;52977;44.816;20.538;2023-07-13T04:52:50;99482.91;;;28.60;70.83
66176;BME280;52977;44.816;20.538;2023-07-13T04:55:17;99491.25;;;28.63;69.72
66176;BME280;52977;44.816;20.538;2023-07-13T04:57:43;99462.94;;;28.45;65.46
66176;BME280;52977;44.816;20.538;2023-07-13T05:00:10;99474.38;;;28.51;62.89
66176;BME280;52977;44.816;20.538;2023-07-13T05:02:38;99496.06;;;28.63;61.26
66176;BME280;52977;44.816;20.538;2023-07-13T05:05:04;99478.44;;;28.50;60.60
66176;BME280;52977;44.816;20.538;2023-07-13T05:07:30;99503.25;;;28.64;60.50
66176;BME280;52977;44.816;20.538;2023-07-13T05:09:59;99515.94;;;28.69;60.91
66176;BME280;52977;44.816;20.538;2023-07-13T05:12:26;99511.31;;;28.62;62.79
66176;BME280;52977;44.816;20.538;2023-07-13T05:14:52;99490.00;;;28.52;66.01
66176;BME280;52977;44.816;20.538;2023-07-13T05:17:18;99528.97;;;28.75;69.41
66176;BME280;52977;44.816;20.538;2023-07-13T05:19:44;99528.41;;;28.80;72.69
66176;BME280;52977;44.816;20.538;2023-07-13T05:22:09;99523.25;;;28.79;74.15
66176;BME280;52977;44.816;20.538;2023-07-13T05:24:35;99531.53;;;28.83;75.01
66176;BME280;52977;44.816;20.538;2023-07-13T05:27:01;99540.84;;;28.79;71.32
66176;BME280;52977;44.816;20.538;2023-07-13T05:29:27;99542.00;;;28.69;66.64
66176;BME280;52977;44.816;20.538;2023-07-13T05:31:54;99559.06;;;28.75;64.84
66176;BME280;52977;44.816;20.538;2023-07-13T05:34:21;99550.88;;;28.80;63.65
66176;BME280;52977;44.816;20.538;2023-07-13T05:36:47;99549.59;;;28.81;63.79
66176;BME280;52977;44.816;20.538;2023-07-13T05:39:14;99557.94;;;28.85;64.55
66176;BME280;52977;44.816;20.538;2023-07-13T05:41:40;99565.00;;;28.90;65.14
66176;BME280;52977;44.816;20.538;2023-07-13T05:44:05;99563.91;;;28.87;65.02
66176;BME280;52977;44.816;20.538;2023-07-13T05:46:31;99565.78;;;28.90;65.65
66176;BME280;52977;44.816;20.538;2023-07-13T05:48:57;99593.97;;;28.99;69.64
66176;BME280;52977;44.816;20.538;2023-07-13T05:51:22;99606.00;;;29.00;74.85
66176;BME280;52977;44.816;20.538;2023-07-13T05:53:48;99603.31;;;28.96;78.03
66176;BME280;52977;44.816;20.538;2023-07-13T05:56:13;99609.81;;;28.93;77.86
66176;BME280;52977;44.816;20.538;2023-07-13T05:58:39;99625.09;;;28.92;77.03
66176;BME280;52977;44.816;20.538;2023-07-13T06:01:07;99606.22;;;28.80;77.35
66176;BME280;52977;44.816;20.538;2023-07-13T06:03:34;99584.59;;;28.68;77.79
66176;BME280;52977;44.816;20.538;2023-07-13T06:06:01;99618.03;;;28.88;78.23
66176;BME280;52977;44.816;20.538;2023-07-13T06:08:27;99587.94;;;28.75;78.69
66176;BME280;52977;44.816;20.538;2023-07-13T06:10:53;99601.97;;;28.88;78.19
66176;BME280;52977;44.816;20.538;2023-07-13T06:13:19;99592.09;;;28.84;76.60
66176;BME280;52977;44.816;20.538;2023-07-13T06:15:49;99558.63;;;28.76;72.49
66176;BME280;52977;44.816;20.538;2023-07-13T06:18:15;99564.09;;;28.93;63.41
66176;BME280;52977;44.816;20.538;2023-07-13T06:20:41;99566.22;;;29.02;60.74
66176;BME280;52977;44.816;20.538;2023-07-13T06:23:08;99574.63;;;29.14;60.61
66176;BME280;52977;44.816;20.538;2023-07-13T06:25:34;99549.22;;;29.05;61.11
66176;BME280;52977;44.816;20.538;2023-07-13T06:28:00;99559.34;;;29.15;61.34
66176;BME280;52977;44.816;20.538;2023-07-13T06:30:26;99571.00;;;29.27;60.48
66176;BME280;52977;44.816;20.538;2023-07-13T06:32:52;99559.66;;;29.30;58.96
66176;BME280;52977;44.816;20.538;2023-07-13T06:35:19;99531.09;;;29.19;56.99
66176;BME280;52977;44.816;20.538;2023-07-13T06:37:44;99548.06;;;29.28;55.88
66176;BME280;52977;44.816;20.538;2023-07-13T06:40:10;99570.19;;;29.39;54.04
66176;BME280;52977;44.816;20.538;2023-07-13T06:42:36;99563.56;;;29.33;53.04
66176;BME280;52977;44.816;20.538;2023-07-13T06:45:04;99561.75;;;29.39;53.21
66176;BME280;52977;44.816;20.538;2023-07-13T06:47:31;99576.69;;;29.49;53.47
66176;BME280;52977;44.816;20.538;2023-07-13T06:49:57;99571.72;;;29.53;55.47
66176;BME280;52977;44.816;20.538;2023-07-13T06:52:23;99560.72;;;29.46;61.17
66176;BME280;52977;44.816;20.538;2023-07-13T06:54:49;99585.63;;;29.57;63.35
66176;BME280;52977;44.816;20.538;2023-07-13T06:57:15;99591.03;;;29.64;63.60
66176;BME280;52977;44.816;20.538;2023-07-13T06:59:41;99603.56;;;29.50;66.57
66176;BME280;52977;44.816;20.538;2023-07-13T07:02:10;99591.06;;;29.51;66.10
66176;BME280;52977;44.816;20.538;2023-07-13T07:04:35;99573.97;;;29.45;64.44
66176;BME280;52977;44.816;20.538;2023-07-13T07:07:01;99569.84;;;29.37;64.55
66176;BME280;52977;44.816;20.538;2023-07-13T07:09:27;99582.41;;;29.45;62.85
66176;BME280;52977;44.816;20.538;2023-07-13T07:11:55;99575.09;;;29.48;62.70
66176;BME280;52977;44.816;20.538;2023-07-13T07:14:22;99523.13;;;29.18;63.02
66176;BME280;52977;44.816;20.538;2023-07-13T07:16:49;99558.22;;;29.48;62.93
66176;BME280;52977;44.816;20.538;2023-07-13T07:19:16;99562.94;;;29.51;60.13
66176;BME280;52977;44.816;20.538;2023-07-13T07:21:42;99564.41;;;29.56;60.16
66176;BME280;52977;44.816;20.538;2023-07-13T07:24:08;99532.28;;;29.44;60.28
66176;BME280;52977;44.816;20.538;2023-07-13T07:26:34;99550.38;;;29.65;57.75
66176;BME280;52977;44.816;20.538;2023-07-13T07:29:00;99544.13;;;29.61;57.82
66176;BME280;52977;44.816;20.538;2023-07-13T07:31:25;99547.75;;;29.48;54.90
66176;BME280;52977;44.816;20.538;2023-07-13T07:33:51;99564.34;;;29.69;56.56
66176;BME280;52977;44.816;20.538;2023-07-13T07:36:17;99573.94;;;29.80;57.80
66176;BME280;52977;44.816;20.538;2023-07-13T07:38:43;99543.00;;;29.58;57.42
66176;BME280;52977;44.816;20.538;2023-07-13T07:41:10;99538.94;;;29.59;53.92
66176;BME280;52977;44.816;20.538;2023-07-13T07:43:36;99574.84;;;29.77;55.15
66176;BME280;52977;44.816;20.538;2023-07-13T07:46:02;99578.25;;;29.72;55.24
66176;BME280;52977;44.816;20.538;2023-07-13T07:48:29;99582.06;;;29.78;56.33
66176;BME280;52977;44.816;20.538;2023-07-13T07:50:55;99569.38;;;29.74;57.33
66176;BME280;52977;44.816;20.538;2023-07-13T07:53:21;99561.97;;;29.67;59.28
66176;BME280;52977;44.816;20.538;2023-07-13T07:55:48;99551.38;;;29.71;59.47
66176;BME280;52977;44.816;20.538;2023-07-13T07:58:15;99577.44;;;29.85;59.55
66176;BME280;52977;44.816;20.538;2023-07-13T08:00:40;99564.03;;;29.89;57.89
66176;BME280;52977;44.816;20.538;2023-07-13T08:03:06;99554.47;;;29.86;54.13
66176;BME280;52977;44.816;20.538;2023-07-13T08:05:31;99539.72;;;29.82;55.12
66176;BME280;52977;44.816;20.538;2023-07-13T08:07:57;99566.56;;;29.96;55.15
66176;BME280;52977;44.816;20.538;2023-07-13T08:10:23;99566.91;;;29.98;55.05
66176;BME280;52977;44.816;20.538;2023-07-13T08:12:49;99544.03;;;29.87;54.78
66176;BME280;52977;44.816;20.538;2023-07-13T08:15:17;99543.22;;;29.86;52.37
66176;BME280;52977;44.816;20.538;2023-07-13T08:17:43;99564.28;;;30.04;52.75
66176;BME280;52977;44.816;20.538;2023-07-13T08:20:10;99576.56;;;30.19;51.96
66176;BME280;52977;44.816;20.538;2023-07-13T08:22:37;99558.25;;;30.14;51.47
66176;BME280;52977;44.816;20.538;2023-07-13T08:25:03;99575.91;;;30.15;51.58
66176;BME280;52977;44.816;20.538;2023-07-13T08:27:30;99576.56;;;30.19;52.35
66176;BME280;52977;44.816;20.538;2023-07-13T08:29:55;99545.31;;;29.95;51.78
66176;BME280;52977;44.816;20.538;2023-07-13T08:32:22;99567.66;;;30.21;52.40
66176;BME280;52977;44.816;20.538;2023-07-13T08:34:49;99551.06;;;30.13;52.60
66176;BME280;52977;44.816;20.538;2023-07-13T08:37:15;99549.00;;;30.14;52.64
66176;BME280;52977;44.816;20.538;2023-07-13T08:39:42;99569.13;;;30.34;53.11
66176;BME280;52977;44.816;20.538;2023-07-13T08:42:27;99555.41;;;30.37;53.36
66176;BME280;52977;44.816;20.538;2023-07-13T08:45:23;99564.16;;;30.39;53.79
66176;BME280;52977;44.816;20.538;2023-07-13T08:47:54;99542.03;;;30.28;54.04
66176;BME280;52977;44.816;20.538;2023-07-13T08:50:25;99566.72;;;30.46;55.69
66176;BME280;52977;44.816;20.538;2023-07-13T08:52:54;99566.28;;;30.57;55.83
66176;BME280;52977;44.816;20.538;2023-07-13T08:55:26;99555.97;;;30.54;56.15
66176;BME280;52977;44.816;20.538;2023-07-13T08:58:00;99559.53;;;30.54;56.54
66176;BME280;52977;44.816;20.538;2023-07-13T09:00:37;99556.44;;;30.61;56.18
66176;BME280;52977;44.816;20.538;2023-07-13T09:03:12;99562.06;;;30.61;56.99
66176;BME280;52977;44.816;20.538;2023-07-13T09:05:42;99557.72;;;30.60;57.44
66176;BME280;52977;44.816;20.538;2023-07-13T09:11:00;99559.25;;;30.61;58.61
66176;BME280;52977;44.816;20.538;2023-07-13T09:16:19;99514.91;;;30.43;58.98
66176;BME280;52977;44.816;20.538;2023-07-13T09:18:55;99535.81;;;30.64;59.31
66176;BME280;52977;44.816;20.538;2023-07-13T09:21:27;99533.00;;;30.74;59.58
66176;BME280;52977;44.816;20.538;2023-07-13T09:24:17;99535.06;;;30.73;60.13
66176;BME280;52977;44.816;20.538;2023-07-13T09:26:47;99527.19;;;30.68;58.86
66176;BME280;52977;44.816;20.538;2023-07-13T09:29:33;99526.91;;;30.75;59.54
66176;BME280;52977;44.816;20.538;2023-07-13T09:32:06;99530.06;;;30.87;58.55
66176;BME280;52977;44.816;20.538;2023-07-13T09:34:36;99515.34;;;30.82;58.35
66176;BME280;52977;44.816;20.538;2023-07-13T09:37:02;99531.97;;;30.90;57.85
66176;BME280;52977;44.816;20.538;2023-07-13T09:39:41;99523.66;;;30.86;57.38
66176;BME280;52977;44.816;20.538;2023-07-13T09:45:00;99522.53;;;30.83;58.01
66176;BME280;52977;44.816;20.538;2023-07-13T09:47:28;99516.78;;;30.87;57.97
66176;BME280;52977;44.816;20.538;2023-07-13T09:49:59;99520.53;;;30.93;57.93
66176;BME280;52977;44.816;20.538;2023-07-13T09:52:26;99516.75;;;30.96;58.59
66176;BME280;52977;44.816;20.538;2023-07-13T09:54:54;99513.69;;;31.04;58.20
66176;BME280;52977;44.816;20.538;2023-07-13T09:57:27;99516.03;;;31.24;54.88
66176;BME280;52977;44.816;20.538;2023-07-13T09:59:55;99509.16;;;31.25;55.06
66176;BME280;52977;44.816;20.538;2023-07-13T10:02:30;99489.13;;;31.13;56.94
66176;BME280;52977;44.816;20.538;2023-07-13T10:05:03;99505.41;;;31.28;55.67
66176;BME280;52977;44.816;20.538;2023-07-13T10:07:31;99507.88;;;31.26;54.26
66176;BME280;52977;44.816;20.538;2023-07-13T10:09:59;99493.03;;;31.25;54.27
66176;BME280;52977;44.816;20.538;2023-07-13T10:12:30;99504.13;;;31.38;53.71
66176;BME280;52977;44.816;20.538;2023-07-13T10:15:01;99470.47;;;31.16;54.27
66176;BME280;52977;44.816;20.538;2023-07-13T10:17:31;99496.00;;;31.31;54.55
66176;BME280;52977;44.816;20.538;2023-07-13T10:20:03;99508.34;;;31.52;54.10
66176;BME280;52977;44.816;20.538;2023-07-13T10:22:37;99495.53;;;31.51;52.77
66176;BME280;52977;44.816;20.538;2023-07-13T10:25:20;99495.03;;;31.52;52.50
66176;BME280;52977;44.816;20.538;2023-07-13T10:27:51;99493.00;;;31.53;52.67
66176;BME280;52977;44.816;20.538;2023-07-13T10:30:27;99496.13;;;31.55;52.07
66176;BME280;52977;44.816;20.538;2023-07-13T10:32:59;99496.00;;;31.59;52.95
66176;BME280;52977;44.816;20.538;2023-07-13T10:35:27;99492.69;;;31.60;53.80
66176;BME280;52977;44.816;20.538;2023-07-13T10:38:02;99482.03;;;31.64;53.44
66176;BME280;52977;44.816;20.538;2023-07-13T10:40:36;99488.44;;;31.74;53.67
66176;BME280;52977;44.816;20.538;2023-07-13T10:43:10;99474.00;;;31.81;52.46
66176;BME280;52977;44.816;20.538;2023-07-13T10:45:37;99472.41;;;31.90;51.01
66176;BME280;52977;44.816;20.538;2023-07-13T10:48:03;99459.53;;;31.89;51.02
66176;BME280;52977;44.816;20.538;2023-07-13T10:50:31;99469.09;;;31.91;51.12
66176;BME280;52977;44.816;20.538;2023-07-13T10:53:29;99473.50;;;31.92;51.52
66176;BME280;52977;44.816;20.538;2023-07-13T10:56:13;99472.66;;;32.10;52.30
66176;BME280;52977;44.816;20.538;2023-07-13T10:58:44;99455.25;;;32.02;51.77
66176;BME280;52977;44.816;20.538;2023-07-13T11:01:14;99483.16;;;32.19;50.61
66176;BME280;52977;44.816;20.538;2023-07-13T11:06:33;99424.16;;;31.88;53.07
66176;BME280;52977;44.816;20.538;2023-07-13T11:09:19;99477.00;;;32.20;51.79
66176;BME280;52977;44.816;20.538;2023-07-13T11:11:46;99473.91;;;32.18;53.19
66176;BME280;52977;44.816;20.538;2023-07-13T11:16:54;99469.75;;;32.29;50.50
66176;BME280;52977;44.816;20.538;2023-07-13T11:24:29;99456.44;;;32.29;50.70
66176;BME280;52977;44.816;20.538;2023-07-13T11:33:18;99465.09;;;32.50;52.41
66176;BME280;52977;44.816;20.538;2023-07-13T11:35:57;99452.25;;;32.49;50.91
66176;BME280;52977;44.816;20.538;2023-07-13T11:41:03;99442.72;;;32.70;48.72
66176;BME280;52977;44.816;20.538;2023-07-13T11:43:29;99443.97;;;32.69;48.15
66176;BME280;52977;44.816;20.538;2023-07-13T11:45:55;99447.06;;;32.81;46.83
66176;BME280;52977;44.816;20.538;2023-07-13T11:48:25;99443.75;;;32.82;47.35
66176;BME280;52977;44.816;20.538;2023-07-13T11:50:55;99453.63;;;33.02;47.95
66176;BME280;52977;44.816;20.538;2023-07-13T11:53:22;99449.47;;;33.12;47.86
66176;BME280;52977;44.816;20.538;2023-07-13T11:55:48;99437.94;;;33.01;47.04
66176;BME280;52977;44.816;20.538;2023-07-13T11:58:19;99451.13;;;33.19;48.42
66176;BME280;52977;44.816;20.538;2023-07-13T12:00:46;99421.25;;;33.03;47.38
66176;BME280;52977;44.816;20.538;2023-07-13T12:03:20;99456.25;;;33.30;47.28
66176;BME280;52977;44.816;20.538;2023-07-13T12:06:21;99446.13;;;33.38;47.03
66176;BME280;52977;44.816;20.538;2023-07-13T12:08:49;99431.66;;;33.36;46.91
66176;BME280;52977;44.816;20.538;2023-07-13T12:11:17;99432.25;;;33.40;47.52
66176;BME280;52977;44.816;20.538;2023-07-13T12:13:44;99434.22;;;33.49;47.90
66176;BME280;52977;44.816;20.538;2023-07-13T12:16:17;99431.59;;;33.45;47.05
66176;BME280;52977;44.816;20.538;2023-07-13T12:18:47;99418.22;;;33.46;47.04
66176;BME280;52977;44.816;20.538;2023-07-13T12:21:17;99436.53;;;33.50;47.30
66176;BME280;52977;44.816;20.538;2023-07-13T12:23:44;99401.34;;;33.36;47.68
66176;BME280;52977;44.816;20.538;2023-07-13T12:26:12;99431.88;;;33.62;44.86
66176;BME280;52977;44.816;20.538;2023-07-13T12:28:47;99426.00;;;33.66;44.62
66176;BME280;52977;44.816;20.538;2023-07-13T12:31:30;99429.66;;;33.81;45.60
66176;BME280;52977;44.816;20.538;2023-07-13T12:34:07;99420.03;;;33.94;46.06
66176;BME280;52977;44.816;20.538;2023-07-13T12:36:35;99420.25;;;34.05;45.67
66176;BME280;52977;44.816;20.538;2023-07-13T12:39:13;99421.16;;;34.17;44.12
66176;BME280;52977;44.816;20.538;2023-07-13T12:41:39;99411.91;;;34.16;44.92
66176;BME280;52977;44.816;20.538;2023-07-13T12:44:11;99396.81;;;34.25;45.17
66176;BME280;52977;44.816;20.538;2023-07-13T12:46:37;99399.13;;;34.42;45.72
66176;BME280;52977;44.816;20.538;2023-07-13T12:49:06;99403.31;;;34.46;45.04
66176;BME280;52977;44.816;20.538;2023-07-13T12:51:32;99394.31;;;34.48;44.24
66176;BME280;52977;44.816;20.538;2023-07-13T12:54:12;99396.88;;;34.46;43.89
66176;BME280;52977;44.816;20.538;2023-07-13T12:56:39;99401.03;;;34.50;44.39
66176;BME280;52977;44.816;20.538;2023-07-13T12:59:05;99399.03;;;34.56;44.58
66176;BME280;52977;44.816;20.538;2023-07-13T13:01:34;99402.19;;;34.58;43.40
66176;BME280;52977;44.816;20.538;2023-07-13T13:04:03;99395.66;;;34.52;42.97
66176;BME280;52977;44.816;20.538;2023-07-13T13:07:00;99382.78;;;34.51;43.51
66176;BME280;52977;44.816;20.538;2023-07-13T13:09:27;99395.38;;;34.50;43.46
66176;BME280;52977;44.816;20.538;2023-07-13T13:11:53;99399.22;;;34.47;42.99
66176;BME280;52977;44.816;20.538;2023-07-13T13:14:19;99411.38;;;34.53;42.58
66176;BME280;52977;44.816;20.538;2023-07-13T13:16:48;99415.28;;;34.56;43.09
66176;BME280;52977;44.816;20.538;2023-07-13T13:19:26;99426.81;;;34.52;42.34
66176;BME280;52977;44.816;20.538;2023-07-13T13:21:54;99420.09;;;34.50;42.93
66176;BME280;52977;44.816;20.538;2023-07-13T13:24:24;99401.81;;;34.30;44.17
66176;BME280;52977;44.816;20.538;2023-07-13T13:26:52;99389.31;;;34.22;44.46